Latest Weather Observations for Coolangatta

IDQ60801

Issued at 6:02 pm EST Tuesday 1 September 2015 (issued every 30 minutes, with the page automatically refreshed every 10 minutes)

About weather observations | Map of weather stations | Latest weather observations for QLD | Other Formats
Station Details ID: 040717 Name: COOLANGATTA Lat: -28.17 Lon: 153.51 Height: 4.0 m
Data from the previous 72 hours. | See also: Recent months at Coolangatta
Date/Time
EST
Temp
°C
App
Temp
°C
Dew
Point
Rel
Hum
%
Delta-T
°C
Wind Press
QNH
hPa
Press
MSL
hPa
Rain
since 9 am
mm
Dir
 
Spd
km/h
Gust
km/h
Spd
kts
Gust
kts
01/06:00pm 16.7 15.4 10.1 65 3.5 N 7 11 4 6 1013.7 1013.7 0.0
01/05:30pm 18.7 18.3 9.8 56 4.7 NE 2 9 1 5 1013.4 1013.4 0.0
01/05:00pm 20.5 18.3 9.4 49 5.9 NNE 11 15 6 8 1013.1 1013.1 0.0
01/04:30pm 21.0 18.0 9.3 47 6.2 NE 15 20 8 11 1012.8 1012.8 0.0
01/04:00pm 21.3 17.9 9.2 46 6.4 NE 17 20 9 11 1012.7 1012.7 0.0
01/03:30pm 21.4 17.7 8.0 42 7.0 NE 17 24 9 13 1012.8 1012.8 0.0
01/03:00pm 21.0 16.9 8.0 43 6.8 NE 19 22 10 12 1012.9 1012.9 0.0
01/02:30pm 21.2 17.1 7.8 42 6.9 NE 19 22 10 12 1013.3 1013.3 0.0
01/02:00pm 21.0 17.5 8.6 45 6.5 NE 17 22 9 12 1013.6 1013.6 0.0
01/01:30pm 20.9 17.1 7.5 42 6.9 NE 17 20 9 11 1013.8 1013.8 0.0
01/01:00pm 20.9 17.2 7.9 43 6.7 NE 17 20 9 11 1014.0 1014.0 0.0
01/12:30pm 20.6 16.7 6.9 41 7.0 NE 17 24 9 13 1014.3 1014.3 0.0
01/12:00pm 20.4 16.6 7.4 43 6.7 NE 17 20 9 11 1014.7 1014.7 0.0
01/11:30am 20.5 16.9 8.2 45 6.4 NNE 17 20 9 11 1015.4 1015.4 0.0
01/11:00am 19.7 16.1 6.8 43 6.5 NNE 15 17 8 9 1015.9 1015.9 0.0
01/10:30am 19.7 16.3 6.1 41 6.8 NNE 13 15 7 8 1016.2 1016.2 0.0
01/10:00am 19.3 16.3 6.1 42 6.5 NNE 11 15 6 8 1016.4 1016.4 0.0
01/09:30am 19.2 17.0 6.3 43 6.4 NNE 7 9 4 5 1016.4 1016.4 0.0
01/09:00am 18.6 17.2 7.4 48 5.7 NNE 4 7 2 4 1016.4 1016.4 0.0
01/08:30am 17.5 17.1 8.4 55 4.7 CALM 0 0 0 0 1016.4 1016.4 0.0
01/08:00am 14.4 14.0 8.4 67 3.0 CALM 0 0 0 0 1016.1 1016.1 0.0
01/07:30am 11.7 11.1 8.9 83 1.4 SW 2 6 1 3 1016.0 1016.0 0.0
01/07:00am 10.1 8.7 8.7 91 0.7 WSW 6 9 3 5 1015.8 1015.8 0.0
01/06:30am 7.9 6.8 6.8 93 0.5 WSW 2 7 1 4 1015.6 1015.6 0.0
01/06:00am 8.4 6.7 7.6 95 0.4 SSW 6 6 3 3 1015.2 1015.2 0.0
01/05:30am 7.3 6.0 6.2 93 0.5 SW 2 9 1 5 1015.0 1015.0 0.0
01/05:00am 7.9 6.8 6.8 93 0.5 WSW 2 6 1 3 1014.6 1014.6 0.0
01/04:30am 8.1 6.1 7.0 93 0.5 SW 7 7 4 4 1014.5 1014.5 0.0
01/04:00am 8.1 6.2 6.7 91 0.6 SSW 6 7 3 4 1014.4 1014.4 0.0
01/03:30am 8.9 7.0 6.9 87 0.9 WSW 6 9 3 5 1014.4 1014.4 0.0
01/03:00am 9.3 8.8 7.7 90 0.8 CALM 0 2 0 1 1014.5 1014.5 0.0
01/02:30am 9.3 7.8 8.4 94 0.4 SW 6 11 3 6 1014.5 1014.5 0.0
01/02:00am 8.9 8.0 7.8 93 0.5 WSW 2 6 1 3 1014.7 1014.7 0.0
01/01:30am 10.0 8.5 9.2 95 0.4 SW 7 9 4 5 1014.8 1014.8 0.0
01/01:00am 10.4 9.9 9.5 94 0.4 SSW 2 6 1 3 1015.0 1015.0 0.0
01/12:30am 10.5 9.2 9.3 92 0.6 SSW 6 9 3 5 1015.3 1015.3 0.0
01/12:00am 11.8 12.0 10.5 92 0.7 CALM 0 0 0 0 1015.6 1015.6 0.0
 
Date/Time
EST
Temp
°C
App
Temp
°C
Dew
Point
Rel
Hum
%
Delta-T
°C
Wind Press
QNH
hPa
Press
MSL
hPa
Rain
since 9 am
mm
Dir
 
Spd
km/h
Gust
km/h
Spd
kts
Gust
kts
31/11:30pm 11.8 11.5 10.2 90 0.8 SSW 2 6 1 3 1015.8 1015.8 0.0
31/11:00pm 12.2 10.0 10.9 92 0.7 WSW 13 15 7 8 1015.7 1015.7 0.0
31/10:30pm 11.9 10.1 10.8 93 0.6 WSW 11 13 6 7 1015.8 1015.8 0.0
31/10:00pm 11.9 10.7 10.3 90 0.8 WSW 7 11 4 6 1015.7 1015.7 0.0
31/09:30pm 12.6 12.8 10.5 87 1.1 CALM 0 6 0 3 1015.6 1015.6 0.0
31/09:00pm 12.7 11.5 10.2 85 1.3 SW 7 15 4 8 1015.5 1015.5 0.0
31/08:30pm 13.2 11.1 11.1 87 1.1 WSW 13 17 7 9 1015.3 1015.3 0.0
31/08:00pm 13.5 11.1 11.4 87 1.1 WSW 15 17 8 9 1015.2 1015.2 0.0
31/07:30pm 13.4 11.7 11.3 87 1.1 WSW 11 13 6 7 1015.0 1015.0 0.0
31/07:00pm 13.8 12.5 11.3 85 1.3 WSW 9 11 5 6 1014.6 1014.6 0.0
31/06:30pm 14.0 12.6 10.8 81 1.7 WSW 9 11 5 6 1014.4 1014.4 0.0
31/06:00pm 15.2 14.1 9.8 70 2.8 SE 6 7 3 4 1014.2 1014.2 0.0
31/05:30pm 16.7 14.9 9.6 63 3.7 SE 9 13 5 7 1014.0 1014.0 0.0
31/05:00pm 18.3 15.9 10.2 59 4.3 ESE 13 15 7 8 1013.7 1013.7 0.0
31/04:30pm 19.2 16.6 9.4 53 5.2 ESE 13 17 7 9 1013.5 1013.5 0.0
31/04:00pm 19.2 15.9 9.4 53 5.2 SE 17 20 9 11 1013.3 1013.3 0.0
31/03:30pm 19.9 17.0 9.8 52 5.4 E 15 20 8 11 1013.2 1013.2 0.0
31/03:00pm 19.2 16.5 9.1 52 5.3 ESE 13 19 7 10 1013.3 1013.3 0.0
31/02:30pm 20.4 17.8 9.3 49 5.9 ESE 13 19 7 10 1013.3 1013.3 0.0
31/02:00pm 20.4 16.5 8.7 47 6.1 SE 19 22 10 12 1013.4 1013.4 0.0
31/01:30pm 20.5 17.0 8.8 47 6.2 E 17 22 9 12 1013.5 1013.5 0.0
31/01:00pm 20.8 17.8 9.4 48 6.1 E 15 32 8 17 1013.7 1013.7 0.0
31/12:30pm 20.1 16.8 9.4 50 5.7 E 17 22 9 12 1014.1 1014.1 0.0
31/12:00pm 20.8 16.8 9.1 47 6.2 ESE 20 26 11 14 1014.2 1014.2 0.0
31/11:30am 21.3 19.2 8.2 43 6.8 SE 9 20 5 11 1014.4 1014.4 0.0
31/11:00am 20.8 17.7 8.8 46 6.3 SSE 15 20 8 11 1015.1 1015.1 0.0
31/10:30am 20.0 16.9 8.7 48 5.9 SSE 15 20 8 11 1015.6 1015.6 0.0
31/10:00am 20.1 17.1 9.1 49 5.8 SSE 15 22 8 12 1015.9 1015.9 0.0
31/09:30am 19.3 16.1 8.3 49 5.7 S 15 22 8 12 1016.1 1016.1 0.0
31/09:00am 18.8 15.5 7.9 49 5.6 SW 15 22 8 12 1016.2 1016.2 0.2
31/08:30am 17.9 14.3 8.5 54 4.8 SSW 17 24 9 13 1016.2 1016.2 0.2
31/08:00am 17.1 13.7 9.0 59 4.2 SSW 17 28 9 15 1016.1 1016.1 0.2
31/07:30am 16.3 13.4 9.7 65 3.4 SSW 15 22 8 12 1015.9 1015.9 0.2
31/07:00am 15.6 14.0 10.2 70 2.8 S 9 15 5 8 1015.9 1015.9 0.2
31/06:30am 13.9 12.3 10.3 79 1.9 SSW 9 11 5 6 1015.7 1015.7 0.2
31/06:00am 14.1 12.1 10.3 78 2.0 SSW 11 15 6 8 1015.5 1015.5 0.2
31/05:30am 14.6 12.3 10.6 77 2.1 SSW 13 17 7 9 1015.1 1015.1 0.2
31/05:00am 14.3 13.3 10.9 80 1.8 SSW 7 11 4 6 1015.2 1015.2 0.2
31/04:30am 14.5 12.8 11.1 80 1.8 SSW 11 15 6 8 1015.0 1015.0 0.2
31/04:00am 14.5 12.8 11.3 81 1.7 SW 11 15 6 8 1014.9 1014.9 0.2
31/03:30am 14.2 12.6 11.7 85 1.3 SSW 11 15 6 8 1014.8 1014.8 0.2
31/03:00am 13.8 12.8 11.1 84 1.4 WSW 7 11 4 6 1015.0 1015.0 0.2
31/02:30am 14.8 12.8 11.6 81 1.7 SW 13 19 7 10 1015.1 1015.1 0.2
31/02:00am 14.6 12.6 11.6 82 1.6 SSW 13 17 7 9 1015.2 1015.2 0.2
31/01:30am 12.8 11.4 11.0 89 0.9 S 9 9 5 5 1015.3 1015.3 0.2
31/01:00am 13.8 12.8 11.1 84 1.4 SW 7 9 4 5 1015.6 1015.6 0.2
31/12:30am 14.1 13.0 12.0 87 1.1 WSW 9 11 5 6 1015.6 1015.6 0.2
31/12:00am 14.1 13.1 11.1 82 1.6 WSW 7 11 4 6 1015.9 1015.9 0.2
 
Date/Time
EST
Temp
°C
App
Temp
°C
Dew
Point
Rel
Hum
%
Delta-T
°C
Wind Press
QNH
hPa
Press
MSL
hPa
Rain
since 9 am
mm
Dir
 
Spd
km/h
Gust
km/h
Spd
kts
Gust
kts
30/11:30pm 15.2 13.9 11.2 77 2.1 SW 9 13 5 7 1016.0 1016.0 0.2
30/11:00pm 15.1 13.8 11.3 78 2.0 WSW 9 13 5 7 1016.2 1016.2 0.2
30/10:30pm 15.6 14.3 11.2 75 2.4 WSW 9 13 5 7 1016.1 1016.1 0.2
30/10:00pm 16.5 14.5 11.6 73 2.7 SSW 13 20 7 11 1016.1 1016.1 0.2
30/09:30pm 16.1 15.0 12.1 77 2.2 SW 9 15 5 8 1016.3 1016.3 0.2
30/09:00pm 16.2 14.4 12.0 76 2.3 SSW 13 19 7 10 1016.2 1016.2 0.2
30/08:30pm 16.1 14.3 12.1 77 2.2 SSW 13 17 7 9 1016.1 1016.1 0.2
30/08:00pm 16.4 14.2 12.2 76 2.3 S 15 20 8 11 1015.8 1015.8 0.2
30/07:30pm 16.2 13.6 12.0 76 2.3 S 17 24 9 13 1015.6 1015.6 0.2
30/07:00pm 16.2 13.5 11.6 74 2.5 S 17 24 9 13 1015.3 1015.3 0.2
30/06:30pm 16.0 14.0 11.4 74 2.5 S 13 19 7 10 1014.9 1014.9 0.2
30/06:00pm 16.5 14.5 11.6 73 2.7 S 13 20 7 11 1014.6 1014.6 0.2
30/05:30pm 16.8 15.0 12.1 74 2.6 S 13 20 7 11 1014.3 1014.3 0.2
30/05:00pm 17.9 15.5 12.6 71 2.9 SSE 17 24 9 13 1013.8 1013.8 0.2
30/04:30pm 18.6 15.6 12.6 68 3.4 SSE 20 30 11 16 1013.5 1013.5 0.2
30/04:00pm 18.8 15.8 12.1 65 3.7 SSE 19 28 10 15 1013.4 1013.4 0.2
30/03:30pm 19.6 15.3 11.9 61 4.3 SSE 26 33 14 18 1013.2 1013.2 0.2
30/03:00pm 19.4 15.4 11.7 61 4.2 SE 24 33 13 18 1013.4 1013.4 0.2
30/02:30pm 19.9 15.3 12.4 62 4.2 SE 28 33 15 18 1013.5 1013.5 0.2
30/02:00pm 19.4 14.5 12.4 64 3.9 SE 30 39 16 21 1013.7 1013.7 0.2
30/01:30pm 21.8 18.2 10.0 47 6.4 S 19 26 10 14 1013.8 1013.8 0.2
30/01:00pm 21.6 19.1 9.8 47 6.4 SSW 13 20 7 11 1014.2 1014.2 0.2
30/12:30pm 21.5 18.4 10.3 49 6.1 S 17 26 9 14 1014.5 1014.5 0.2
30/12:00pm 20.8 17.8 9.4 48 6.1 SSW 15 20 8 11 1015.0 1015.0 0.2
30/11:30am 20.4 16.7 9.3 49 5.9 SSW 19 28 10 15 1015.6 1015.6 0.0
30/11:00am 20.0 16.8 10.1 53 5.3 SSW 17 24 9 13 1016.1 1016.1 0.0
30/10:30am 19.6 17.1 10.9 57 4.7 SW 15 24 8 13 1016.6 1016.6 0.0
30/10:00am 17.6 15.8 10.9 65 3.6 SW 11 17 6 9 1017.0 1017.0 0.0
30/09:30am 16.9 15.1 12.2 74 2.6 SW 13 20 7 11 1017.1 1017.1 0.0
30/09:00am 16.1 15.2 13.6 85 1.4 S 11 13 6 7 1017.0 1017.0 4.4
30/08:30am 16.0 15.8 14.7 92 0.7 S 9 9 5 5 1017.1 1017.1 4.4
30/08:00am 15.5 16.9 14.4 93 0.6 CALM 0 0 0 0 1017.0 1017.0 4.4
30/07:30am 15.6 15.4 14.8 95 0.5 WSW 9 11 5 6 1016.7 1016.7 4.4
30/07:00am 15.1 16.5 14.5 96 0.3 CALM 0 0 0 0 1016.8 1016.8 4.4
30/06:30am 14.5 14.3 13.7 95 0.4 WNW 7 7 4 4 1016.4 1016.4 4.4
30/06:00am 14.6 15.0 13.6 94 0.6 W 4 7 2 4 1016.3 1016.3 4.4
30/05:30am 14.8 14.7 13.8 94 0.6 WSW 7 7 4 4 1015.9 1015.9 4.4
30/05:00am 15.2 15.3 13.9 92 0.7 SW 6 7 3 4 1015.5 1015.5 4.4
30/04:30am 15.5 15.1 14.0 91 0.8 WSW 9 11 5 6 1015.6 1015.6 4.4
30/04:00am 15.5 14.8 14.2 92 0.7 WSW 11 13 6 7 1016.0 1016.0 4.4
30/03:30am 15.6 15.6 14.1 91 0.8 W 7 11 4 6 1016.0 1016.0 4.4
30/03:00am 15.4 14.7 14.3 93 0.6 NW 11 15 6 8 1016.6 1016.6 4.4
30/02:30am 15.4 16.1 14.4 94 0.6 WSW 4 7 2 4 1016.6 1016.6 4.4
30/02:00am 15.5 15.6 14.4 93 0.6 NW 7 9 4 5 1016.8 1016.8 4.4
30/01:30am 15.5 15.2 14.5 94 0.6 WNW 9 13 5 7 1017.6 1017.6 4.4
30/01:00am 15.2 15.3 14.4 95 0.5 NW 7 9 4 5 1017.9 1017.9 4.4
30/12:30am 15.3 14.7 14.5 95 0.5 W 11 13 6 7 1018.3 1018.3 4.2
30/12:00am 15.6 15.8 14.8 95 0.5 WSW 7 9 4 5 1018.6 1018.6 4.0
 
Date/Time
EST
Temp
°C
App
Temp
°C
Dew
Point
Rel
Hum
%
Delta-T
°C
Wind Press
QNH
hPa
Press
MSL
hPa
Rain
since 9 am
mm
Dir
 
Spd
km/h
Gust
km/h
Spd
kts
Gust
kts
29/11:30pm 15.5 15.9 14.7 95 0.5 WSW 6 7 3 4 1018.6 1018.6 4.0
29/11:00pm 15.4 15.1 14.4 94 0.6 W 9 11 5 6 1018.9 1018.9 4.0
29/10:59pm 15.4 15.1 14.4 94 0.6 W 9 11 5 6 1018.9 1018.9 4.0
29/10:30pm 15.4 15.1 14.3 93 0.6 W 9 13 5 7 1018.9 1018.9 3.8
29/10:27pm 15.4 14.7 14.4 94 0.6 W 11 13 6 7 1019.0 1019.0 3.8
29/10:00pm 15.4 14.7 14.4 94 0.6 W 11 13 6 7 1019.3 1019.3 3.4
29/09:30pm 15.8 15.2 14.7 93 0.6 WNW 11 15 6 8 1019.4 1019.4 3.2
29/09:04pm 15.9 15.3 14.6 92 0.7 NNW 11 17 6 9 1019.3 1019.3 2.6
29/09:00pm 15.8 15.5 14.5 92 0.7 NNW 9 11 5 6 1019.5 1019.5 2.6
29/08:51pm 15.8 16.1 14.5 92 0.7 NNW 6 9 3 5 1019.7 1019.7 2.0
29/08:30pm 15.8 15.5 14.5 92 0.7 WNW 9 11 5 6 1020.1 1020.1 1.2
29/08:00pm 16.1 15.8 14.5 90 0.9 WNW 9 11 5 6 1020.0 1020.0 0.6
29/07:30pm 16.8 16.9 14.4 86 1.4 NW 7 9 4 5 1019.7 1019.7 0.2
29/07:00pm 17.3 16.4 13.8 80 2.0 NNW 11 13 6 7 1020.0 1020.0 0.2
29/06:30pm 18.8 16.9 13.0 69 3.3 N 15 19 8 10 1019.9 1019.9 0.0

Other Formats:

Comma delimited format used in spreadsheet applications
http://www.bom.gov.au/fwo/IDQ60801/IDQ60801.94592.axf

JavaScript Object Notation format (JSON) in row-major order
http://www.bom.gov.au/fwo/IDQ60801/IDQ60801.94592.json